Weather at Paluknys Heli Base

Public forecast

Using degrees Celsius for public forecast. Weather courtesy of forecast.io.

Closest aviation weather report (METAR) to Paluknys Heli Base

Closest report is Vilnius International Airport, 13.4 nm (24.8 km) NE.

2023/03/20 19:20 (retrieved 12 minutes ago)

EYVI 201920Z 21007KT 9999 SCT046 08/03 Q1011 NOSIG

Closest aviation forecast (TAF) to Paluknys Heli Base

Closest forecast is Vilnius International Airport, 13.4 nm (24.8 km) NE.

2023/03/20 18:06 (retrieved 1 hour ago)

TAF EYVI 201700Z 2018/2118 18008KT 5000 BR BKN020 TEMPO 2018/2021 24010KT 3000 SHRA SCT010 BKN015CB FM202100 27012KT OVC010 TEMPO 2021/2024 OVC005 BECMG 2100/2101 OVC005 BECMG 2106/2107 8000 NSW BKN010 OVC015 TEMPO 2107/2112 3000 RA BR BECMG 2112/2113 BKN015 TEMPO 2115/2118 5000 SHRA SCT010 BKN015CB